sensor_id;sensor_type;location;lat;lon;timestamp;P1;durP1;ratioP1;P2;durP2;ratioP2
67074;SDS011;53990;50.334;18.640;2023-04-01T00:01:15;5.00;;;2.80;;
67074;SDS011;53990;50.334;18.640;2023-04-01T00:03:42;5.30;;;3.20;;
67074;SDS011;53990;50.334;18.640;2023-04-01T00:06:13;6.30;;;3.40;;
67074;SDS011;53990;50.334;18.640;2023-04-01T00:08:40;5.50;;;3.00;;
67074;SDS011;53990;50.334;18.640;2023-04-01T00:11:07;5.10;;;2.90;;
67074;SDS011;53990;50.334;18.640;2023-04-01T00:13:33;7.30;;;3.20;;
67074;SDS011;53990;50.334;18.640;2023-04-01T00:16:00;5.90;;;3.00;;
67074;SDS011;53990;50.334;18.640;2023-04-01T00:18:28;8.50;;;3.10;;
67074;SDS011;53990;50.334;18.640;2023-04-01T00:20:54;5.60;;;2.80;;
67074;SDS011;53990;50.334;18.640;2023-04-01T00:23:21;9.50;;;3.10;;
67074;SDS011;53990;50.334;18.640;2023-04-01T00:25:48;5.80;;;2.90;;
67074;SDS011;53990;50.334;18.640;2023-04-01T00:28:17;6.60;;;3.20;;
67074;SDS011;53990;50.334;18.640;2023-04-01T00:30:44;6.70;;;3.30;;
67074;SDS011;53990;50.334;18.640;2023-04-01T00:33:11;5.50;;;2.90;;
67074;SDS011;53990;50.334;18.640;2023-04-01T00:35:38;6.10;;;3.00;;
67074;SDS011;53990;50.334;18.640;2023-04-01T00:38:05;6.50;;;3.20;;
67074;SDS011;53990;50.334;18.640;2023-04-01T00:40:42;7.70;;;3.40;;
67074;SDS011;53990;50.334;18.640;2023-04-01T00:43:14;8.90;;;3.50;;
67074;SDS011;53990;50.334;18.640;2023-04-01T00:45:42;5.80;;;3.10;;
67074;SDS011;53990;50.334;18.640;2023-04-01T00:48:14;6.50;;;3.50;;
67074;SDS011;53990;50.334;18.640;2023-04-01T00:50:44;6.30;;;3.20;;
67074;SDS011;53990;50.334;18.640;2023-04-01T00:53:13;5.70;;;3.00;;
67074;SDS011;53990;50.334;18.640;2023-04-01T00:55:47;5.70;;;3.20;;
67074;SDS011;53990;50.334;18.640;2023-04-01T00:58:16;6.90;;;3.90;;
67074;SDS011;53990;50.334;18.640;2023-04-01T01:00:46;5.40;;;3.30;;
67074;SDS011;53990;50.334;18.640;2023-04-01T01:03:13;7.70;;;3.60;;
67074;SDS011;53990;50.334;18.640;2023-04-01T01:05:50;7.50;;;3.60;;
67074;SDS011;53990;50.334;18.640;2023-04-01T01:11:35;5.90;;;3.20;;
67074;SDS011;53990;50.334;18.640;2023-04-01T01:16:53;8.20;;;4.20;;
67074;SDS011;53990;50.334;18.640;2023-04-01T01:25:30;8.00;;;3.80;;
67074;SDS011;53990;50.334;18.640;2023-04-01T01:30:51;7.40;;;3.60;;
67074;SDS011;53990;50.334;18.640;2023-04-01T01:36:04;8.80;;;3.90;;
67074;SDS011;53990;50.334;18.640;2023-04-01T01:38:34;7.00;;;3.50;;
67074;SDS011;53990;50.334;18.640;2023-04-01T01:41:02;8.10;;;3.50;;
67074;SDS011;53990;50.334;18.640;2023-04-01T01:43:33;5.50;;;3.40;;
67074;SDS011;53990;50.334;18.640;2023-04-01T01:46:06;5.40;;;3.30;;
67074;SDS011;53990;50.334;18.640;2023-04-01T01:49:03;7.00;;;3.50;;
67074;SDS011;53990;50.334;18.640;2023-04-01T01:51:31;8.80;;;4.00;;
67074;SDS011;53990;50.334;18.640;2023-04-01T01:53:58;5.90;;;3.80;;
67074;SDS011;53990;50.334;18.640;2023-04-01T01:56:26;8.70;;;4.10;;
67074;SDS011;53990;50.334;18.640;2023-04-01T01:58:59;7.50;;;3.60;;
67074;SDS011;53990;50.334;18.640;2023-04-01T02:01:29;6.20;;;3.50;;
67074;SDS011;53990;50.334;18.640;2023-04-01T02:03:58;8.60;;;4.00;;
67074;SDS011;53990;50.334;18.640;2023-04-01T02:06:28;7.90;;;4.10;;
67074;SDS011;53990;50.334;18.640;2023-04-01T02:09:00;8.20;;;4.00;;
67074;SDS011;53990;50.334;18.640;2023-04-01T02:11:43;9.10;;;4.60;;
67074;SDS011;53990;50.334;18.640;2023-04-01T02:20:02;8.80;;;5.10;;
67074;SDS011;53990;50.334;18.640;2023-04-01T02:22:34;7.70;;;4.50;;
67074;SDS011;53990;50.334;18.640;2023-04-01T02:25:05;8.30;;;4.80;;
67074;SDS011;53990;50.334;18.640;2023-04-01T02:27:33;7.70;;;4.40;;
67074;SDS011;53990;50.334;18.640;2023-04-01T02:30:00;7.60;;;4.30;;
67074;SDS011;53990;50.334;18.640;2023-04-01T02:32:27;6.60;;;3.70;;
67074;SDS011;53990;50.334;18.640;2023-04-01T02:34:56;7.20;;;3.80;;
67074;SDS011;53990;50.334;18.640;2023-04-01T02:37:23;5.60;;;3.90;;
67074;SDS011;53990;50.334;18.640;2023-04-01T02:39:50;8.30;;;3.60;;
67074;SDS011;53990;50.334;18.640;2023-04-01T02:42:16;6.70;;;3.80;;
67074;SDS011;53990;50.334;18.640;2023-04-01T02:44:43;6.30;;;3.50;;
67074;SDS011;53990;50.334;18.640;2023-04-01T02:47:10;7.30;;;3.80;;
67074;SDS011;53990;50.334;18.640;2023-04-01T02:49:36;6.60;;;3.60;;
67074;SDS011;53990;50.334;18.640;2023-04-01T02:52:03;5.20;;;3.00;;
67074;SDS011;53990;50.334;18.640;2023-04-01T02:54:30;6.40;;;3.40;;
67074;SDS011;53990;50.334;18.640;2023-04-01T02:56:57;7.20;;;3.30;;
67074;SDS011;53990;50.334;18.640;2023-04-01T02:59:24;6.50;;;3.40;;
67074;SDS011;53990;50.334;18.640;2023-04-01T03:01:50;6.60;;;3.10;;
67074;SDS011;53990;50.334;18.640;2023-04-01T03:04:17;7.20;;;3.00;;
67074;SDS011;53990;50.334;18.640;2023-04-01T03:06:44;7.40;;;3.50;;
67074;SDS011;53990;50.334;18.640;2023-04-01T03:09:10;5.60;;;3.30;;
67074;SDS011;53990;50.334;18.640;2023-04-01T03:11:37;6.70;;;3.40;;
67074;SDS011;53990;50.334;18.640;2023-04-01T03:14:04;6.80;;;3.60;;
67074;SDS011;53990;50.334;18.640;2023-04-01T03:16:31;5.90;;;3.20;;
67074;SDS011;53990;50.334;18.640;2023-04-01T03:18:58;7.20;;;3.30;;
67074;SDS011;53990;50.334;18.640;2023-04-01T03:21:26;7.50;;;3.50;;
67074;SDS011;53990;50.334;18.640;2023-04-01T03:23:53;5.30;;;3.10;;
67074;SDS011;53990;50.334;18.640;2023-04-01T03:26:19;7.30;;;4.00;;
67074;SDS011;53990;50.334;18.640;2023-04-01T03:28:48;5.80;;;3.00;;
67074;SDS011;53990;50.334;18.640;2023-04-01T03:31:15;10.60;;;3.40;;
67074;SDS011;53990;50.334;18.640;2023-04-01T03:33:42;8.40;;;3.40;;
67074;SDS011;53990;50.334;18.640;2023-04-01T03:36:09;6.90;;;3.20;;
67074;SDS011;53990;50.334;18.640;2023-04-01T03:38:40;7.80;;;3.60;;
67074;SDS011;53990;50.334;18.640;2023-04-01T03:41:07;7.80;;;3.70;;
67074;SDS011;53990;50.334;18.640;2023-04-01T03:43:37;6.00;;;3.40;;
67074;SDS011;53990;50.334;18.640;2023-04-01T03:46:04;6.10;;;3.60;;
67074;SDS011;53990;50.334;18.640;2023-04-01T03:48:31;6.70;;;4.40;;
67074;SDS011;53990;50.334;18.640;2023-04-01T03:50:58;7.80;;;3.90;;
67074;SDS011;53990;50.334;18.640;2023-04-01T03:53:24;7.30;;;4.10;;
67074;SDS011;53990;50.334;18.640;2023-04-01T03:55:51;8.10;;;4.50;;
67074;SDS011;53990;50.334;18.640;2023-04-01T03:58:18;9.70;;;4.40;;
67074;SDS011;53990;50.334;18.640;2023-04-01T04:00:45;8.40;;;4.70;;
67074;SDS011;53990;50.334;18.640;2023-04-01T04:03:20;9.30;;;5.00;;
67074;SDS011;53990;50.334;18.640;2023-04-01T04:08:58;8.60;;;4.60;;
67074;SDS011;53990;50.334;18.640;2023-04-01T04:11:25;7.50;;;4.30;;
67074;SDS011;53990;50.334;18.640;2023-04-01T04:13:52;10.40;;;4.50;;
67074;SDS011;53990;50.334;18.640;2023-04-01T04:16:21;9.90;;;5.10;;
67074;SDS011;53990;50.334;18.640;2023-04-01T04:18:47;10.00;;;5.50;;
67074;SDS011;53990;50.334;18.640;2023-04-01T04:25:02;8.00;;;4.00;;
67074;SDS011;53990;50.334;18.640;2023-04-01T04:31:18;7.50;;;3.40;;
67074;SDS011;53990;50.334;18.640;2023-04-01T04:36:52;6.90;;;3.50;;
67074;SDS011;53990;50.334;18.640;2023-04-01T04:39:19;6.60;;;3.30;;
67074;SDS011;53990;50.334;18.640;2023-04-01T04:41:46;6.60;;;3.20;;
67074;SDS011;53990;50.334;18.640;2023-04-01T04:44:12;7.10;;;3.40;;
67074;SDS011;53990;50.334;18.640;2023-04-01T04:46:39;8.00;;;3.90;;
67074;SDS011;53990;50.334;18.640;2023-04-01T04:49:06;8.20;;;4.00;;
67074;SDS011;53990;50.334;18.640;2023-04-01T04:55:21;7.50;;;3.60;;
67074;SDS011;53990;50.334;18.640;2023-04-01T04:57:47;9.80;;;4.30;;
67074;SDS011;53990;50.334;18.640;2023-04-01T05:00:14;8.70;;;3.90;;
67074;SDS011;53990;50.334;18.640;2023-04-01T05:02:41;8.50;;;4.20;;
67074;SDS011;53990;50.334;18.640;2023-04-01T05:05:08;14.80;;;7.90;;
67074;SDS011;53990;50.334;18.640;2023-04-01T05:07:35;8.50;;;3.90;;
67074;SDS011;53990;50.334;18.640;2023-04-01T05:10:02;7.80;;;4.20;;
67074;SDS011;53990;50.334;18.640;2023-04-01T05:12:28;8.10;;;4.30;;
67074;SDS011;53990;50.334;18.640;2023-04-01T05:14:55;6.80;;;4.10;;
67074;SDS011;53990;50.334;18.640;2023-04-01T05:17:22;11.40;;;5.60;;
67074;SDS011;53990;50.334;18.640;2023-04-01T05:19:48;9.00;;;4.40;;
67074;SDS011;53990;50.334;18.640;2023-04-01T05:22:15;8.60;;;4.60;;
67074;SDS011;53990;50.334;18.640;2023-04-01T05:24:42;8.30;;;4.10;;
67074;SDS011;53990;50.334;18.640;2023-04-01T05:27:10;7.70;;;3.80;;
67074;SDS011;53990;50.334;18.640;2023-04-01T05:29:37;8.20;;;4.30;;
67074;SDS011;53990;50.334;18.640;2023-04-01T05:32:04;7.90;;;4.90;;
67074;SDS011;53990;50.334;18.640;2023-04-01T05:34:31;8.90;;;4.10;;
67074;SDS011;53990;50.334;18.640;2023-04-01T05:36:57;9.90;;;4.70;;
67074;SDS011;53990;50.334;18.640;2023-04-01T05:39:24;26.80;;;12.50;;
67074;SDS011;53990;50.334;18.640;2023-04-01T05:41:51;6.70;;;3.20;;
67074;SDS011;53990;50.334;18.640;2023-04-01T05:44:17;7.60;;;3.90;;
67074;SDS011;53990;50.334;18.640;2023-04-01T05:46:44;7.10;;;3.50;;
67074;SDS011;53990;50.334;18.640;2023-04-01T05:49:11;8.10;;;3.60;;
67074;SDS011;53990;50.334;18.640;2023-04-01T05:51:38;8.00;;;3.60;;
67074;SDS011;53990;50.334;18.640;2023-04-01T05:54:05;8.30;;;3.70;;
67074;SDS011;53990;50.334;18.640;2023-04-01T05:56:32;8.90;;;3.40;;
67074;SDS011;53990;50.334;18.640;2023-04-01T05:58:58;7.20;;;2.90;;
67074;SDS011;53990;50.334;18.640;2023-04-01T06:01:25;8.60;;;3.20;;
67074;SDS011;53990;50.334;18.640;2023-04-01T06:03:52;8.60;;;4.20;;
67074;SDS011;53990;50.334;18.640;2023-04-01T06:06:27;10.80;;;3.80;;
67074;SDS011;53990;50.334;18.640;2023-04-01T06:08:56;7.40;;;3.70;;
67074;SDS011;53990;50.334;18.640;2023-04-01T06:11:51;8.50;;;3.60;;
67074;SDS011;53990;50.334;18.640;2023-04-01T06:18:11;6.60;;;3.20;;
67074;SDS011;53990;50.334;18.640;2023-04-01T06:21:08;7.00;;;3.40;;
67074;SDS011;53990;50.334;18.640;2023-04-01T06:26:33;9.50;;;4.10;;
67074;SDS011;53990;50.334;18.640;2023-04-01T06:34:20;9.90;;;4.20;;
67074;SDS011;53990;50.334;18.640;2023-04-01T06:40:04;6.70;;;3.80;;
67074;SDS011;53990;50.334;18.640;2023-04-01T06:45:16;7.80;;;3.90;;
67074;SDS011;53990;50.334;18.640;2023-04-01T06:50:51;7.30;;;4.30;;
67074;SDS011;53990;50.334;18.640;2023-04-01T06:53:31;10.10;;;4.20;;
67074;SDS011;53990;50.334;18.640;2023-04-01T06:56:03;6.20;;;3.90;;
67074;SDS011;53990;50.334;18.640;2023-04-01T06:58:37;7.40;;;3.70;;
67074;SDS011;53990;50.334;18.640;2023-04-01T07:01:09;8.50;;;3.80;;
67074;SDS011;53990;50.334;18.640;2023-04-01T07:03:43;8.80;;;4.70;;
67074;SDS011;53990;50.334;18.640;2023-04-01T07:06:28;8.40;;;4.20;;
67074;SDS011;53990;50.334;18.640;2023-04-01T07:08:59;11.10;;;4.70;;
67074;SDS011;53990;50.334;18.640;2023-04-01T07:11:32;9.10;;;4.40;;
67074;SDS011;53990;50.334;18.640;2023-04-01T07:16:55;11.20;;;5.20;;
67074;SDS011;53990;50.334;18.640;2023-04-01T07:19:47;8.90;;;4.60;;
67074;SDS011;53990;50.334;18.640;2023-04-01T07:22:30;7.60;;;4.70;;
67074;SDS011;53990;50.334;18.640;2023-04-01T07:25:03;8.10;;;4.90;;
67074;SDS011;53990;50.334;18.640;2023-04-01T07:27:32;10.50;;;4.40;;
67074;SDS011;53990;50.334;18.640;2023-04-01T07:30:00;9.10;;;4.50;;
67074;SDS011;53990;50.334;18.640;2023-04-01T07:32:42;7.50;;;4.70;;
67074;SDS011;53990;50.334;18.640;2023-04-01T07:52:06;6.90;;;4.00;;
67074;SDS011;53990;50.334;18.640;2023-04-01T07:54:41;7.00;;;4.00;;
67074;SDS011;53990;50.334;18.640;2023-04-01T08:00:44;5.00;;;3.40;;
67074;SDS011;53990;50.334;18.640;2023-04-01T08:03:33;6.70;;;3.80;;
67074;SDS011;53990;50.334;18.640;2023-04-01T08:06:14;6.60;;;4.10;;
67074;SDS011;53990;50.334;18.640;2023-04-01T08:09:15;8.00;;;4.20;;
67074;SDS011;53990;50.334;18.640;2023-04-01T08:11:53;5.90;;;3.80;;
67074;SDS011;53990;50.334;18.640;2023-04-01T08:18:13;7.80;;;3.90;;
67074;SDS011;53990;50.334;18.640;2023-04-01T08:23:15;6.90;;;3.90;;
67074;SDS011;53990;50.334;18.640;2023-04-01T08:26:02;6.30;;;3.90;;
67074;SDS011;53990;50.334;18.640;2023-04-01T08:28:55;5.70;;;4.00;;
67074;SDS011;53990;50.334;18.640;2023-04-01T08:31:35;7.80;;;4.70;;
67074;SDS011;53990;50.334;18.640;2023-04-01T08:34:08;7.40;;;4.60;;
67074;SDS011;53990;50.334;18.640;2023-04-01T08:36:43;8.10;;;5.00;;
67074;SDS011;53990;50.334;18.640;2023-04-01T08:39:16;7.60;;;4.60;;
67074;SDS011;53990;50.334;18.640;2023-04-01T09:03:58;7.10;;;3.60;;
67074;SDS011;53990;50.334;18.640;2023-04-01T09:06:44;6.70;;;4.30;;
67074;SDS011;53990;50.334;18.640;2023-04-01T09:18:59;5.30;;;4.20;;
67074;SDS011;53990;50.334;18.640;2023-04-01T09:24:26;4.30;;;3.30;;
67074;SDS011;53990;50.334;18.640;2023-04-01T09:32:52;6.80;;;4.40;;
67074;SDS011;53990;50.334;18.640;2023-04-01T09:46:58;4.60;;;3.10;;
67074;SDS011;53990;50.334;18.640;2023-04-01T10:09:29;6.60;;;2.90;;
67074;SDS011;53990;50.334;18.640;2023-04-01T10:41:10;4.40;;;2.60;;
67074;SDS011;53990;50.334;18.640;2023-04-01T11:01:14;5.10;;;3.00;;
67074;SDS011;53990;50.334;18.640;2023-04-01T11:23:53;6.40;;;4.00;;
67074;SDS011;53990;50.334;18.640;2023-04-01T11:32:05;6.30;;;4.30;;
67074;SDS011;53990;50.334;18.640;2023-04-01T11:42:37;7.40;;;4.30;;
67074;SDS011;53990;50.334;18.640;2023-04-01T12:01:48;6.60;;;3.50;;
67074;SDS011;53990;50.334;18.640;2023-04-01T12:07:32;7.60;;;3.90;;
67074;SDS011;53990;50.334;18.640;2023-04-01T12:10:17;6.40;;;3.30;;
67074;SDS011;53990;50.334;18.640;2023-04-01T12:31:53;5.90;;;3.70;;
67074;SDS011;53990;50.334;18.640;2023-04-01T12:37:21;3.20;;;2.30;;
67074;SDS011;53990;50.334;18.640;2023-04-01T12:45:32;4.90;;;3.00;;
67074;SDS011;53990;50.334;18.640;2023-04-01T12:55:54;5.40;;;3.10;;
67074;SDS011;53990;50.334;18.640;2023-04-01T12:58:52;4.70;;;3.00;;
67074;SDS011;53990;50.334;18.640;2023-04-01T13:17:28;12.90;;;6.40;;
67074;SDS011;53990;50.334;18.640;2023-04-01T13:22:49;6.20;;;4.20;;
67074;SDS011;53990;50.334;18.640;2023-04-01T13:25:44;11.80;;;6.80;;
67074;SDS011;53990;50.334;18.640;2023-04-01T13:28:22;8.60;;;5.50;;
67074;SDS011;53990;50.334;18.640;2023-04-01T13:36:14;5.70;;;4.00;;
67074;SDS011;53990;50.334;18.640;2023-04-01T13:41:31;7.00;;;3.70;;
67074;SDS011;53990;50.334;18.640;2023-04-01T13:58:28;7.30;;;4.90;;
67074;SDS011;53990;50.334;18.640;2023-04-01T14:01:08;11.60;;;6.50;;
67074;SDS011;53990;50.334;18.640;2023-04-01T14:03:54;6.90;;;4.10;;
67074;SDS011;53990;50.334;18.640;2023-04-01T14:23:13;8.50;;;4.90;;
67074;SDS011;53990;50.334;18.640;2023-04-01T14:32:01;16.90;;;11.00;;
67074;SDS011;53990;50.334;18.640;2023-04-01T14:42:59;11.80;;;7.40;;
67074;SDS011;53990;50.334;18.640;2023-04-01T14:48:15;12.90;;;8.80;;
67074;SDS011;53990;50.334;18.640;2023-04-01T14:50:49;13.30;;;8.90;;
67074;SDS011;53990;50.334;18.640;2023-04-01T14:56:01;14.60;;;8.80;;
67074;SDS011;53990;50.334;18.640;2023-04-01T14:58:46;9.50;;;6.00;;
67074;SDS011;53990;50.334;18.640;2023-04-01T15:10:04;11.90;;;8.50;;
67074;SDS011;53990;50.334;18.640;2023-04-01T15:15:29;16.90;;;8.50;;
67074;SDS011;53990;50.334;18.640;2023-04-01T15:18:06;13.00;;;7.50;;
67074;SDS011;53990;50.334;18.640;2023-04-01T15:20:56;16.30;;;10.10;;
67074;SDS011;53990;50.334;18.640;2023-04-01T15:23:34;14.30;;;8.60;;
67074;SDS011;53990;50.334;18.640;2023-04-01T15:37:09;10.40;;;6.00;;
67074;SDS011;53990;50.334;18.640;2023-04-01T15:42:32;10.90;;;6.60;;
67074;SDS011;53990;50.334;18.640;2023-04-01T15:45:08;12.50;;;7.30;;
67074;SDS011;53990;50.334;18.640;2023-04-01T15:53:48;8.20;;;4.80;;
67074;SDS011;53990;50.334;18.640;2023-04-01T15:56:19;13.00;;;7.90;;
67074;SDS011;53990;50.334;18.640;2023-04-01T16:04:19;21.10;;;12.30;;
67074;SDS011;53990;50.334;18.640;2023-04-01T16:09:47;19.10;;;11.50;;
67074;SDS011;53990;50.334;18.640;2023-04-01T16:12:30;17.30;;;9.30;;
67074;SDS011;53990;50.334;18.640;2023-04-01T16:20:24;18.70;;;10.70;;
67074;SDS011;53990;50.334;18.640;2023-04-01T16:23:02;15.10;;;10.10;;
67074;SDS011;53990;50.334;18.640;2023-04-01T16:25:40;15.60;;;10.60;;
67074;SDS011;53990;50.334;18.640;2023-04-01T16:28:15;21.50;;;13.60;;
67074;SDS011;53990;50.334;18.640;2023-04-01T16:33:56;17.50;;;10.10;;
67074;SDS011;53990;50.334;18.640;2023-04-01T16:36:33;26.90;;;13.70;;
67074;SDS011;53990;50.334;18.640;2023-04-01T16:41:51;25.70;;;13.30;;
67074;SDS011;53990;50.334;18.640;2023-04-01T16:44:27;17.50;;;10.00;;
67074;SDS011;53990;50.334;18.640;2023-04-01T16:46:59;18.00;;;10.40;;
67074;SDS011;53990;50.334;18.640;2023-04-01T16:49:46;20.60;;;11.80;;
67074;SDS011;53990;50.334;18.640;2023-04-01T16:52:17;19.70;;;;;
67074;SDS011;53990;50.334;18.640;2023-04-01T16:54:58;13.30;;;7.60;;
67074;SDS011;53990;50.334;18.640;2023-04-01T16:57:37;11.20;;;8.60;;
67074;SDS011;53990;50.334;18.640;2023-04-01T17:00:24;13.10;;;8.20;;
67074;SDS011;53990;50.334;18.640;2023-04-01T17:08:16;22.10;;;13.70;;
67074;SDS011;53990;50.334;18.640;2023-04-01T17:10:53;18.60;;;13.70;;
67074;SDS011;53990;50.334;18.640;2023-04-01T17:13:54;20.20;;;11.10;;
67074;SDS011;53990;50.334;18.640;2023-04-01T17:19:33;25.80;;;19.10;;
67074;SDS011;53990;50.334;18.640;2023-04-01T17:24:59;32.00;;;24.00;;
67074;SDS011;53990;50.334;18.640;2023-04-01T17:39:02;13.50;;;9.20;;
67074;SDS011;53990;50.334;18.640;2023-04-01T17:41:41;16.90;;;13.10;;
67074;SDS011;53990;50.334;18.640;2023-04-01T17:44:28;22.80;;;18.70;;
67074;SDS011;53990;50.334;18.640;2023-04-01T17:49:56;16.60;;;12.10;;
67074;SDS011;53990;50.334;18.640;2023-04-01T17:52:39;16.00;;;12.20;;
67074;SDS011;53990;50.334;18.640;2023-04-01T17:57:52;16.40;;;10.90;;
67074;SDS011;53990;50.334;18.640;2023-04-01T18:00:37;14.10;;;9.80;;
67074;SDS011;53990;50.334;18.640;2023-04-01T18:22:48;16.80;;;13.00;;
67074;SDS011;53990;50.334;18.640;2023-04-01T18:25:43;17.50;;;13.20;;
67074;SDS011;53990;50.334;18.640;2023-04-01T18:28:22;13.00;;;8.20;;
67074;SDS011;53990;50.334;18.640;2023-04-01T18:30:58;9.00;;;6.90;;
67074;SDS011;53990;50.334;18.640;2023-04-01T18:36:47;16.90;;;10.80;;
67074;SDS011;53990;50.334;18.640;2023-04-01T18:42:44;23.00;;;15.70;;
67074;SDS011;53990;50.334;18.640;2023-04-01T18:51:11;36.80;;;20.90;;
67074;SDS011;53990;50.334;18.640;2023-04-01T18:53:48;30.20;;;18.10;;
67074;SDS011;53990;50.334;18.640;2023-04-01T18:56:34;30.70;;;18.10;;
67074;SDS011;53990;50.334;18.640;2023-04-01T18:59:40;29.70;;;17.40;;
67074;SDS011;53990;50.334;18.640;2023-04-01T19:02:25;44.00;;;23.10;;
67074;SDS011;53990;50.334;18.640;2023-04-01T19:05:16;93.80;;;41.50;;
67074;SDS011;53990;50.334;18.640;2023-04-01T19:07:47;44.80;;;24.10;;
67074;SDS011;53990;50.334;18.640;2023-04-01T19:10:21;58.10;;;28.50;;
67074;SDS011;53990;50.334;18.640;2023-04-01T19:21:29;63.70;;;37.20;;
67074;SDS011;53990;50.334;18.640;2023-04-01T19:24:37;69.30;;;40.40;;
67074;SDS011;53990;50.334;18.640;2023-04-01T19:35:17;32.60;;;21.80;;
67074;SDS011;53990;50.334;18.640;2023-04-01T19:43:01;31.00;;;19.60;;
67074;SDS011;53990;50.334;18.640;2023-04-01T19:45:45;32.50;;;24.10;;
67074;SDS011;53990;50.334;18.640;2023-04-01T19:51:13;40.00;;;28.30;;
67074;SDS011;53990;50.334;18.640;2023-04-01T19:56:39;41.40;;;30.00;;
67074;SDS011;53990;50.334;18.640;2023-04-01T20:13:57;27.80;;;20.00;;
67074;SDS011;53990;50.334;18.640;2023-04-01T20:29:37;88.70;;;49.30;;
67074;SDS011;53990;50.334;18.640;2023-04-01T20:37:52;58.50;;;35.70;;
67074;SDS011;53990;50.334;18.640;2023-04-01T20:43:14;42.60;;;29.20;;
67074;SDS011;53990;50.334;18.640;2023-04-01T20:45:55;38.30;;;25.80;;
67074;SDS011;53990;50.334;18.640;2023-04-01T20:51:47;38.80;;;25.30;;
67074;SDS011;53990;50.334;18.640;2023-04-01T21:04:00;59.50;;;37.10;;
67074;SDS011;53990;50.334;18.640;2023-04-01T21:09:55;68.60;;;40.00;;
67074;SDS011;53990;50.334;18.640;2023-04-01T21:12:51;55.70;;;34.20;;
67074;SDS011;53990;50.334;18.640;2023-04-01T21:34:31;34.90;;;26.60;;
67074;SDS011;53990;50.334;18.640;2023-04-01T21:48:47;38.40;;;25.70;;
67074;SDS011;53990;50.334;18.640;2023-04-01T21:59:51;41.90;;;28.00;;
67074;SDS011;53990;50.334;18.640;2023-04-01T22:14:21;54.90;;;36.60;;
67074;SDS011;53990;50.334;18.640;2023-04-01T22:27:41;53.40;;;36.60;;
67074;SDS011;53990;50.334;18.640;2023-04-01T22:30:23;56.30;;;38.40;;
67074;SDS011;53990;50.334;18.640;2023-04-01T22:32:56;47.90;;;34.90;;
67074;SDS011;53990;50.334;18.640;2023-04-01T22:36:09;48.30;;;33.70;;
67074;SDS011;53990;50.334;18.640;2023-04-01T22:41:45;46.20;;;33.80;;
67074;SDS011;53990;50.334;18.640;2023-04-01T22:45:00;50.20;;;33.10;;
67074;SDS011;53990;50.334;18.640;2023-04-01T22:50:20;42.60;;;31.10;;
67074;SDS011;53990;50.334;18.640;2023-04-01T22:52:50;40.60;;;28.40;;
67074;SDS011;53990;50.334;18.640;2023-04-01T22:55:27;38.20;;;28.00;;
67074;SDS011;53990;50.334;18.640;2023-04-01T22:58:08;41.00;;;29.60;;
67074;SDS011;53990;50.334;18.640;2023-04-01T23:00:44;40.80;;;28.90;;
67074;SDS011;53990;50.334;18.640;2023-04-01T23:05:52;43.30;;;30.90;;
67074;SDS011;53990;50.334;18.640;2023-04-01T23:11:02;44.10;;;33.40;;
67074;SDS011;53990;50.334;18.640;2023-04-01T23:13:56;45.00;;;32.20;;
67074;SDS011;53990;50.334;18.640;2023-04-01T23:16:28;47.40;;;32.20;;
67074;SDS011;53990;50.334;18.640;2023-04-01T23:19:02;43.90;;;30.70;;
67074;SDS011;53990;50.334;18.640;2023-04-01T23:21:44;38.40;;;29.80;;
67074;SDS011;53990;50.334;18.640;2023-04-01T23:24:28;40.80;;;28.80;;
67074;SDS011;53990;50.334;18.640;2023-04-01T23:27:34;41.40;;;30.00;;
67074;SDS011;53990;50.334;18.640;2023-04-01T23:30:11;41.70;;;29.50;;
67074;SDS011;53990;50.334;18.640;2023-04-01T23:32:52;43.90;;;29.20;;
67074;SDS011;53990;50.334;18.640;2023-04-01T23:38:39;40.00;;;29.00;;
67074;SDS011;53990;50.334;18.640;2023-04-01T23:41:17;41.80;;;29.40;;
67074;SDS011;53990;50.334;18.640;2023-04-01T23:43:55;42.90;;;28.30;;
67074;SDS011;53990;50.334;18.640;2023-04-01T23:46:23;41.50;;;28.20;;
67074;SDS011;53990;50.334;18.640;2023-04-01T23:48:52;38.60;;;29.80;;
67074;SDS011;53990;50.334;18.640;2023-04-01T23:51:23;39.90;;;28.90;;
67074;SDS011;53990;50.334;18.640;2023-04-01T23:54:04;41.80;;;30.80;;
67074;SDS011;53990;50.334;18.640;2023-04-01T23:56:52;42.30;;;29.90;;
67074;SDS011;53990;50.334;18.640;2023-04-01T23:59:39;44.40;;;31.00;;
